sensor_id;sensor_type;location;lat;lon;timestamp;temperature;humidity
8666;DHT22;4370;48.916;8.380;2023-11-18T00:01:07;6.60;99.90
8666;DHT22;4370;48.916;8.380;2023-11-18T00:03:34;6.80;99.90
8666;DHT22;4370;48.916;8.380;2023-11-18T00:06:03;6.40;99.90
8666;DHT22;4370;48.916;8.380;2023-11-18T00:08:34;6.80;99.90
8666;DHT22;4370;48.916;8.380;2023-11-18T00:11:00;6.60;99.90
8666;DHT22;4370;48.916;8.380;2023-11-18T00:13:29;6.80;99.90
8666;DHT22;4370;48.916;8.380;2023-11-18T00:15:59;6.60;99.90
8666;DHT22;4370;48.916;8.380;2023-11-18T00:18:45;6.70;99.90
8666;DHT22;4370;48.916;8.380;2023-11-18T00:24:47;6.70;99.90
8666;DHT22;4370;48.916;8.380;2023-11-18T00:27:17;6.80;99.90
8666;DHT22;4370;48.916;8.380;2023-11-18T00:29:43;6.30;99.90
8666;DHT22;4370;48.916;8.380;2023-11-18T00:32:12;6.40;99.90
8666;DHT22;4370;48.916;8.380;2023-11-18T00:34:58;6.70;99.90
8666;DHT22;4370;48.916;8.380;2023-11-18T00:37:28;6.60;99.90
8666;DHT22;4370;48.916;8.380;2023-11-18T00:39:55;6.50;99.90
8666;DHT22;4370;48.916;8.380;2023-11-18T00:42:22;6.50;99.90
8666;DHT22;4370;48.916;8.380;2023-11-18T00:45:11;6.30;99.90
8666;DHT22;4370;48.916;8.380;2023-11-18T00:47:45;6.40;99.90
8666;DHT22;4370;48.916;8.380;2023-11-18T00:50:18;6.60;99.90
8666;DHT22;4370;48.916;8.380;2023-11-18T00:55:44;6.40;99.90
8666;DHT22;4370;48.916;8.380;2023-11-18T00:58:11;6.20;99.90
8666;DHT22;4370;48.916;8.380;2023-11-18T01:00:42;5.90;99.90
8666;DHT22;4370;48.916;8.380;2023-11-18T01:03:13;5.90;99.90
8666;DHT22;4370;48.916;8.380;2023-11-18T01:05:50;6.10;99.90
8666;DHT22;4370;48.916;8.380;2023-11-18T01:08:19;6.20;99.90
8666;DHT22;4370;48.916;8.380;2023-11-18T01:10:45;6.30;99.90
8666;DHT22;4370;48.916;8.380;2023-11-18T01:13:21;6.10;99.90
8666;DHT22;4370;48.916;8.380;2023-11-18T01:15:54;6.40;99.90
8666;DHT22;4370;48.916;8.380;2023-11-18T01:20:49;6.20;99.90
8666;DHT22;4370;48.916;8.380;2023-11-18T01:23:35;6.50;99.90
8666;DHT22;4370;48.916;8.380;2023-11-18T01:26:08;6.40;99.90
8666;DHT22;4370;48.916;8.380;2023-11-18T01:28:35;6.20;99.90
8666;DHT22;4370;48.916;8.380;2023-11-18T01:31:14;6.40;99.90
8666;DHT22;4370;48.916;8.380;2023-11-18T01:33:40;6.40;99.90
8666;DHT22;4370;48.916;8.380;2023-11-18T01:36:08;6.60;99.90
8666;DHT22;4370;48.916;8.380;2023-11-18T01:38:37;6.20;99.90
8666;DHT22;4370;48.916;8.380;2023-11-18T01:41:04;6.30;99.90
8666;DHT22;4370;48.916;8.380;2023-11-18T01:43:30;6.00;99.90
8666;DHT22;4370;48.916;8.380;2023-11-18T01:46:21;6.10;99.90
8666;DHT22;4370;48.916;8.380;2023-11-18T01:48:53;6.30;99.90
8666;DHT22;4370;48.916;8.380;2023-11-18T01:51:20;5.80;99.90
8666;DHT22;4370;48.916;8.380;2023-11-18T01:53:53;5.90;99.90
8666;DHT22;4370;48.916;8.380;2023-11-18T01:58:51;6.10;99.90
8666;DHT22;4370;48.916;8.380;2023-11-18T02:01:19;6.10;99.90
8666;DHT22;4370;48.916;8.380;2023-11-18T02:18:11;5.40;99.90
8666;DHT22;4370;48.916;8.380;2023-11-18T02:20:44;5.60;99.90
8666;DHT22;4370;48.916;8.380;2023-11-18T02:23:33;5.60;99.90
8666;DHT22;4370;48.916;8.380;2023-11-18T02:26:09;5.50;99.90
8666;DHT22;4370;48.916;8.380;2023-11-18T02:31:33;5.60;99.90
8666;DHT22;4370;48.916;8.380;2023-11-18T02:34:14;5.80;99.90
8666;DHT22;4370;48.916;8.380;2023-11-18T02:37:04;5.80;99.90
8666;DHT22;4370;48.916;8.380;2023-11-18T02:39:55;5.40;99.90
8666;DHT22;4370;48.916;8.380;2023-11-18T02:55:45;5.50;99.90
8666;DHT22;4370;48.916;8.380;2023-11-18T02:58:32;5.60;99.90
8666;DHT22;4370;48.916;8.380;2023-11-18T03:01:00;5.80;99.90
8666;DHT22;4370;48.916;8.380;2023-11-18T03:06:56;5.90;99.90
8666;DHT22;4370;48.916;8.380;2023-11-18T03:09:34;5.50;99.90
8666;DHT22;4370;48.916;8.380;2023-11-18T03:12:20;5.40;99.90
8666;DHT22;4370;48.916;8.380;2023-11-18T03:17:29;5.30;99.90
8666;DHT22;4370;48.916;8.380;2023-11-18T03:19:56;5.40;99.90
8666;DHT22;4370;48.916;8.380;2023-11-18T03:22:22;4.90;99.90
8666;DHT22;4370;48.916;8.380;2023-11-18T03:24:49;5.20;99.90
8666;DHT22;4370;48.916;8.380;2023-11-18T03:27:17;5.10;99.90
8666;DHT22;4370;48.916;8.380;2023-11-18T03:29:46;5.30;99.90
8666;DHT22;4370;48.916;8.380;2023-11-18T03:32:12;5.20;99.90
8666;DHT22;4370;48.916;8.380;2023-11-18T03:35:25;4.70;99.90
8666;DHT22;4370;48.916;8.380;2023-11-18T03:37:44;4.90;99.90
8666;DHT22;4370;48.916;8.380;2023-11-18T03:40:23;5.00;99.90
8666;DHT22;4370;48.916;8.380;2023-11-18T03:46:23;4.50;99.90
8666;DHT22;4370;48.916;8.380;2023-11-18T03:51:56;4.60;99.90
8666;DHT22;4370;48.916;8.380;2023-11-18T03:54:26;4.50;99.90
8666;DHT22;4370;48.916;8.380;2023-11-18T03:57:17;4.30;99.90
8666;DHT22;4370;48.916;8.380;2023-11-18T03:59:43;4.60;99.90
8666;DHT22;4370;48.916;8.380;2023-11-18T04:02:12;4.40;99.90
8666;DHT22;4370;48.916;8.380;2023-11-18T04:04:40;4.50;99.90
8666;DHT22;4370;48.916;8.380;2023-11-18T04:07:07;4.40;99.90
8666;DHT22;4370;48.916;8.380;2023-11-18T04:10:12;4.60;99.90
8666;DHT22;4370;48.916;8.380;2023-11-18T04:12:58;4.30;99.90
8666;DHT22;4370;48.916;8.380;2023-11-18T04:15:34;4.50;99.90
8666;DHT22;4370;48.916;8.380;2023-11-18T04:18:02;4.20;99.90
8666;DHT22;4370;48.916;8.380;2023-11-18T04:27:24;4.50;99.90
8666;DHT22;4370;48.916;8.380;2023-11-18T04:29:57;4.30;99.90
8666;DHT22;4370;48.916;8.380;2023-11-18T04:34:49;4.20;99.90
8666;DHT22;4370;48.916;8.380;2023-11-18T04:37:17;4.00;99.90
8666;DHT22;4370;48.916;8.380;2023-11-18T04:40:06;3.90;99.90
8666;DHT22;4370;48.916;8.380;2023-11-18T04:45:11;3.80;99.90
8666;DHT22;4370;48.916;8.380;2023-11-18T04:47:50;4.00;99.90
8666;DHT22;4370;48.916;8.380;2023-11-18T04:50:17;3.60;99.90
8666;DHT22;4370;48.916;8.380;2023-11-18T04:52:43;3.60;99.90
8666;DHT22;4370;48.916;8.380;2023-11-18T04:55:10;3.80;99.90
8666;DHT22;4370;48.916;8.380;2023-11-18T04:57:58;3.80;99.90
8666;DHT22;4370;48.916;8.380;2023-11-18T05:00:50;4.00;99.90
8666;DHT22;4370;48.916;8.380;2023-11-18T05:03:17;4.00;99.90
8666;DHT22;4370;48.916;8.380;2023-11-18T05:05:52;4.30;99.90
8666;DHT22;4370;48.916;8.380;2023-11-18T05:08:28;3.90;99.90
8666;DHT22;4370;48.916;8.380;2023-11-18T05:11:51;4.30;99.90
8666;DHT22;4370;48.916;8.380;2023-11-18T05:17:56;5.30;99.90
8666;DHT22;4370;48.916;8.380;2023-11-18T05:24:23;4.20;99.90
8666;DHT22;4370;48.916;8.380;2023-11-18T05:27:02;4.20;99.90
8666;DHT22;4370;48.916;8.380;2023-11-18T05:29:34;4.30;99.90
8666;DHT22;4370;48.916;8.380;2023-11-18T05:32:21;4.30;99.90
8666;DHT22;4370;48.916;8.380;2023-11-18T05:35:00;4.50;99.90
8666;DHT22;4370;48.916;8.380;2023-11-18T06:04:12;4.40;99.90
8666;DHT22;4370;48.916;8.380;2023-11-18T06:09:44;4.40;99.90
8666;DHT22;4370;48.916;8.380;2023-11-18T06:12:31;4.40;99.90
8666;DHT22;4370;48.916;8.380;2023-11-18T06:28:05;4.00;99.90
8666;DHT22;4370;48.916;8.380;2023-11-18T06:30:58;4.00;99.90
8666;DHT22;4370;48.916;8.380;2023-11-18T06:33:29;6.60;99.90
8666;DHT22;4370;48.916;8.380;2023-11-18T06:36:35;3.70;99.90
8666;DHT22;4370;48.916;8.380;2023-11-18T06:39:02;3.70;99.90
8666;DHT22;4370;48.916;8.380;2023-11-18T06:41:49;3.80;99.90
8666;DHT22;4370;48.916;8.380;2023-11-18T06:58:09;3.80;99.90
8666;DHT22;4370;48.916;8.380;2023-11-18T07:07:54;4.00;99.90
8666;DHT22;4370;48.916;8.380;2023-11-18T07:14:05;4.00;99.90
8666;DHT22;4370;48.916;8.380;2023-11-18T07:23:27;4.20;99.90
8666;DHT22;4370;48.916;8.380;2023-11-18T07:26:13;4.20;99.90
8666;DHT22;4370;48.916;8.380;2023-11-18T07:45:13;4.80;99.90
8666;DHT22;4370;48.916;8.380;2023-11-18T08:01:15;5.30;99.90
8666;DHT22;4370;48.916;8.380;2023-11-18T08:03:58;5.40;99.90
8666;DHT22;4370;48.916;8.380;2023-11-18T08:10:23;5.40;99.90
8666;DHT22;4370;48.916;8.380;2023-11-18T10:24:12;9.20;99.90
8666;DHT22;4370;48.916;8.380;2023-11-18T10:30:45;9.00;99.90
8666;DHT22;4370;48.916;8.380;2023-11-18T10:33:17;9.10;99.90
8666;DHT22;4370;48.916;8.380;2023-11-18T10:36:04;9.30;99.90
8666;DHT22;4370;48.916;8.380;2023-11-18T10:38:59;9.30;99.90
8666;DHT22;4370;48.916;8.380;2023-11-18T10:41:44;9.30;99.90
8666;DHT22;4370;48.916;8.380;2023-11-18T10:44:20;8.90;99.90
8666;DHT22;4370;48.916;8.380;2023-11-18T10:47:07;9.20;99.90
8666;DHT22;4370;48.916;8.380;2023-11-18T10:49:44;9.10;99.90
8666;DHT22;4370;48.916;8.380;2023-11-18T10:52:10;9.30;99.90
8666;DHT22;4370;48.916;8.380;2023-11-18T10:58:35;9.20;99.90
8666;DHT22;4370;48.916;8.380;2023-11-18T11:01:03;9.30;99.90
8666;DHT22;4370;48.916;8.380;2023-11-18T11:03:31;9.20;99.90
8666;DHT22;4370;48.916;8.380;2023-11-18T11:09:50;9.10;99.90
8666;DHT22;4370;48.916;8.380;2023-11-18T11:12:21;9.20;99.90
8666;DHT22;4370;48.916;8.380;2023-11-18T11:15:29;9.30;99.90
8666;DHT22;4370;48.916;8.380;2023-11-18T11:21:34;9.00;99.90
8666;DHT22;4370;48.916;8.380;2023-11-18T11:24:04;8.80;99.90
8666;DHT22;4370;48.916;8.380;2023-11-18T11:50:31;8.80;99.90
8666;DHT22;4370;48.916;8.380;2023-11-18T11:53:26;9.10;99.90
8666;DHT22;4370;48.916;8.380;2023-11-18T12:00:08;9.00;99.90
8666;DHT22;4370;48.916;8.380;2023-11-18T12:25:51;8.50;99.90
8666;DHT22;4370;48.916;8.380;2023-11-18T12:28:35;8.50;99.90
8666;DHT22;4370;48.916;8.380;2023-11-18T12:31:48;8.90;99.90
8666;DHT22;4370;48.916;8.380;2023-11-18T12:41:08;8.50;99.90
8666;DHT22;4370;48.916;8.380;2023-11-18T12:43:48;8.80;99.90
8666;DHT22;4370;48.916;8.380;2023-11-18T12:52:39;8.20;99.90
8666;DHT22;4370;48.916;8.380;2023-11-18T12:55:52;8.70;99.90
8666;DHT22;4370;48.916;8.380;2023-11-18T12:58:27;8.70;99.90
8666;DHT22;4370;48.916;8.380;2023-11-18T13:01:15;8.50;99.90
8666;DHT22;4370;48.916;8.380;2023-11-18T13:16:13;8.70;99.90
8666;DHT22;4370;48.916;8.380;2023-11-18T13:18:52;9.00;99.90
8666;DHT22;4370;48.916;8.380;2023-11-18T13:21:23;8.50;99.90
8666;DHT22;4370;48.916;8.380;2023-11-18T13:27:56;8.50;99.90
8666;DHT22;4370;48.916;8.380;2023-11-18T13:31:09;8.50;99.90
8666;DHT22;4370;48.916;8.380;2023-11-18T13:34:04;8.90;99.90
8666;DHT22;4370;48.916;8.380;2023-11-18T13:40:02;8.90;99.90
8666;DHT22;4370;48.916;8.380;2023-11-18T13:54:52;9.00;99.90
8666;DHT22;4370;48.916;8.380;2023-11-18T13:57:29;9.00;99.90
8666;DHT22;4370;48.916;8.380;2023-11-18T13:59:55;8.80;99.90
8666;DHT22;4370;48.916;8.380;2023-11-18T14:25:53;9.00;99.90
8666;DHT22;4370;48.916;8.380;2023-11-18T14:28:18;8.80;99.90
8666;DHT22;4370;48.916;8.380;2023-11-18T14:31:05;9.20;99.90
8666;DHT22;4370;48.916;8.380;2023-11-18T14:33:52;8.90;99.90
8666;DHT22;4370;48.916;8.380;2023-11-18T14:39:21;8.80;99.90
8666;DHT22;4370;48.916;8.380;2023-11-18T14:41:48;8.70;99.90
8666;DHT22;4370;48.916;8.380;2023-11-18T14:44:15;9.00;99.90
8666;DHT22;4370;48.916;8.380;2023-11-18T14:49:20;9.10;99.90
8666;DHT22;4370;48.916;8.380;2023-11-18T14:51:58;9.10;99.90
8666;DHT22;4370;48.916;8.380;2023-11-18T14:54:26;9.00;99.90
8666;DHT22;4370;48.916;8.380;2023-11-18T14:56:56;8.70;99.90
8666;DHT22;4370;48.916;8.380;2023-11-18T14:59:31;8.70;99.90
8666;DHT22;4370;48.916;8.380;2023-11-18T15:02:05;8.80;99.90
8666;DHT22;4370;48.916;8.380;2023-11-18T15:08:01;8.60;99.90
8666;DHT22;4370;48.916;8.380;2023-11-18T15:11:02;8.60;99.90
8666;DHT22;4370;48.916;8.380;2023-11-18T15:13:28;9.60;99.90
8666;DHT22;4370;48.916;8.380;2023-11-18T15:16:02;8.50;99.90
8666;DHT22;4370;48.916;8.380;2023-11-18T15:18:40;8.50;99.90
8666;DHT22;4370;48.916;8.380;2023-11-18T15:23:33;8.40;99.90
8666;DHT22;4370;48.916;8.380;2023-11-18T15:26:04;8.40;99.90
8666;DHT22;4370;48.916;8.380;2023-11-18T15:31:00;8.80;99.90
8666;DHT22;4370;48.916;8.380;2023-11-18T15:33:52;8.20;99.90
8666;DHT22;4370;48.916;8.380;2023-11-18T15:36:18;8.40;99.90
8666;DHT22;4370;48.916;8.380;2023-11-18T15:38:45;8.20;99.90
8666;DHT22;4370;48.916;8.380;2023-11-18T15:41:23;8.70;99.90
8666;DHT22;4370;48.916;8.380;2023-11-18T15:43:58;8.20;99.90
8666;DHT22;4370;48.916;8.380;2023-11-18T15:46:26;8.50;99.90
8666;DHT22;4370;48.916;8.380;2023-11-18T15:49:12;8.60;99.90
8666;DHT22;4370;48.916;8.380;2023-11-18T15:54:19;8.20;99.90
8666;DHT22;4370;48.916;8.380;2023-11-18T15:56:49;8.00;99.90
8666;DHT22;4370;48.916;8.380;2023-11-18T15:59:17;8.20;99.90
8666;DHT22;4370;48.916;8.380;2023-11-18T16:01:55;8.30;99.90
8666;DHT22;4370;48.916;8.380;2023-11-18T16:06:57;7.90;99.90
8666;DHT22;4370;48.916;8.380;2023-11-18T16:09:23;8.10;99.90
8666;DHT22;4370;48.916;8.380;2023-11-18T16:11:59;7.90;99.90
8666;DHT22;4370;48.916;8.380;2023-11-18T16:14:26;7.80;99.90
8666;DHT22;4370;48.916;8.380;2023-11-18T16:20:07;8.10;99.90
8666;DHT22;4370;48.916;8.380;2023-11-18T16:25:48;8.20;99.90
8666;DHT22;4370;48.916;8.380;2023-11-18T16:28:34;7.90;99.90
8666;DHT22;4370;48.916;8.380;2023-11-18T16:31:05;8.20;99.90
8666;DHT22;4370;48.916;8.380;2023-11-18T16:33:41;7.90;99.90
8666;DHT22;4370;48.916;8.380;2023-11-18T16:36:20;8.00;99.90
8666;DHT22;4370;48.916;8.380;2023-11-18T16:38:49;8.20;99.90
8666;DHT22;4370;48.916;8.380;2023-11-18T16:41:18;8.10;99.90
8666;DHT22;4370;48.916;8.380;2023-11-18T16:46:53;8.00;99.90
8666;DHT22;4370;48.916;8.380;2023-11-18T16:49:19;7.90;99.90
8666;DHT22;4370;48.916;8.380;2023-11-18T17:05:34;7.80;99.90
8666;DHT22;4370;48.916;8.380;2023-11-18T17:08:03;7.70;99.90
8666;DHT22;4370;48.916;8.380;2023-11-18T17:10:35;8.00;99.90
8666;DHT22;4370;48.916;8.380;2023-11-18T17:13:02;7.70;99.90
8666;DHT22;4370;48.916;8.380;2023-11-18T17:15:28;8.10;99.90
8666;DHT22;4370;48.916;8.380;2023-11-18T17:17:56;7.70;99.90
8666;DHT22;4370;48.916;8.380;2023-11-18T17:20:34;8.00;99.90
8666;DHT22;4370;48.916;8.380;2023-11-18T17:23:05;8.00;99.90
8666;DHT22;4370;48.916;8.380;2023-11-18T17:25:49;8.10;99.90
8666;DHT22;4370;48.916;8.380;2023-11-18T17:38:33;7.80;99.90
8666;DHT22;4370;48.916;8.380;2023-11-18T17:41:19;8.10;99.90
8666;DHT22;4370;48.916;8.380;2023-11-18T17:44:11;7.80;99.90
8666;DHT22;4370;48.916;8.380;2023-11-18T18:00:28;7.70;99.90
8666;DHT22;4370;48.916;8.380;2023-11-18T18:03:27;7.70;99.90
8666;DHT22;4370;48.916;8.380;2023-11-18T18:05:52;8.10;99.90
8666;DHT22;4370;48.916;8.380;2023-11-18T18:08:31;8.10;99.90
8666;DHT22;4370;48.916;8.380;2023-11-18T18:17:43;8.00;99.90
8666;DHT22;4370;48.916;8.380;2023-11-18T18:20:13;7.50;99.90
8666;DHT22;4370;48.916;8.380;2023-11-18T18:22:40;7.80;99.90
8666;DHT22;4370;48.916;8.380;2023-11-18T18:25:06;7.90;99.90
8666;DHT22;4370;48.916;8.380;2023-11-18T18:27:34;7.90;99.90
8666;DHT22;4370;48.916;8.380;2023-11-18T18:30:09;7.90;99.90
8666;DHT22;4370;48.916;8.380;2023-11-18T18:32:41;7.70;99.90
8666;DHT22;4370;48.916;8.380;2023-11-18T18:35:13;7.60;99.90
8666;DHT22;4370;48.916;8.380;2023-11-18T18:37:40;8.10;99.90
8666;DHT22;4370;48.916;8.380;2023-11-18T18:40:06;8.00;99.90
8666;DHT22;4370;48.916;8.380;2023-11-18T18:42:32;8.50;99.90
8666;DHT22;4370;48.916;8.380;2023-11-18T18:48:15;7.50;99.90
8666;DHT22;4370;48.916;8.380;2023-11-18T18:53:44;7.80;99.90
8666;DHT22;4370;48.916;8.380;2023-11-18T18:56:20;8.00;99.90
8666;DHT22;4370;48.916;8.380;2023-11-18T18:58:50;7.80;99.90
8666;DHT22;4370;48.916;8.380;2023-11-18T19:01:26;7.90;99.90
8666;DHT22;4370;48.916;8.380;2023-11-18T19:04:23;8.00;99.90
8666;DHT22;4370;48.916;8.380;2023-11-18T19:06:53;7.70;99.90
8666;DHT22;4370;48.916;8.380;2023-11-18T19:09:56;8.00;99.90
8666;DHT22;4370;48.916;8.380;2023-11-18T19:14:48;8.40;99.90
8666;DHT22;4370;48.916;8.380;2023-11-18T19:17:16;8.10;99.90
8666;DHT22;4370;48.916;8.380;2023-11-18T19:19:53;8.30;99.90
8666;DHT22;4370;48.916;8.380;2023-11-18T19:22:20;8.30;99.90
8666;DHT22;4370;48.916;8.380;2023-11-18T19:27:13;8.50;99.90
8666;DHT22;4370;48.916;8.380;2023-11-18T19:29:42;8.60;99.90
8666;DHT22;4370;48.916;8.380;2023-11-18T19:32:11;8.70;99.90
8666;DHT22;4370;48.916;8.380;2023-11-18T19:34:37;8.30;99.90
8666;DHT22;4370;48.916;8.380;2023-11-18T19:37:06;8.50;99.90
8666;DHT22;4370;48.916;8.380;2023-11-18T19:39:43;8.70;99.90
8666;DHT22;4370;48.916;8.380;2023-11-18T19:42:13;8.70;99.90
8666;DHT22;4370;48.916;8.380;2023-11-18T19:47:23;8.50;99.90
8666;DHT22;4370;48.916;8.380;2023-11-18T19:53:31;8.40;99.90
8666;DHT22;4370;48.916;8.380;2023-11-18T19:55:57;8.20;99.90
8666;DHT22;4370;48.916;8.380;2023-11-18T19:58:32;8.50;99.90
8666;DHT22;4370;48.916;8.380;2023-11-18T20:00:59;8.40;99.90
8666;DHT22;4370;48.916;8.380;2023-11-18T20:03:26;8.30;99.90
8666;DHT22;4370;48.916;8.380;2023-11-18T20:05:52;8.30;99.90
8666;DHT22;4370;48.916;8.380;2023-11-18T20:10:46;8.50;99.90
8666;DHT22;4370;48.916;8.380;2023-11-18T20:13:14;8.10;99.90
8666;DHT22;4370;48.916;8.380;2023-11-18T20:15:46;8.10;99.90
8666;DHT22;4370;48.916;8.380;2023-11-18T20:20:52;8.60;99.90
8666;DHT22;4370;48.916;8.380;2023-11-18T20:23:30;8.30;99.90
8666;DHT22;4370;48.916;8.380;2023-11-18T20:28:23;8.60;99.90
8666;DHT22;4370;48.916;8.380;2023-11-18T20:33:15;8.60;99.90
8666;DHT22;4370;48.916;8.380;2023-11-18T20:35:47;8.80;99.90
8666;DHT22;4370;48.916;8.380;2023-11-18T20:38:15;8.90;99.90
8666;DHT22;4370;48.916;8.380;2023-11-18T20:40:43;8.70;99.90
8666;DHT22;4370;48.916;8.380;2023-11-18T20:43:11;8.70;99.90
8666;DHT22;4370;48.916;8.380;2023-11-18T20:46:24;9.20;99.90
8666;DHT22;4370;48.916;8.380;2023-11-18T20:48:31;9.10;99.90
8666;DHT22;4370;48.916;8.380;2023-11-18T20:50:57;9.00;99.90
8666;DHT22;4370;48.916;8.380;2023-11-18T20:53:23;8.90;99.90
8666;DHT22;4370;48.916;8.380;2023-11-18T20:55:53;9.10;99.90
8666;DHT22;4370;48.916;8.380;2023-11-18T20:58:23;9.30;99.90
8666;DHT22;4370;48.916;8.380;2023-11-18T21:00:53;9.10;99.90
8666;DHT22;4370;48.916;8.380;2023-11-18T21:03:31;9.20;99.90
8666;DHT22;4370;48.916;8.380;2023-11-18T21:05:58;9.10;99.90
8666;DHT22;4370;48.916;8.380;2023-11-18T21:08:31;9.40;99.90
8666;DHT22;4370;48.916;8.380;2023-11-18T21:11:00;9.30;99.90
8666;DHT22;4370;48.916;8.380;2023-11-18T21:13:41;9.20;99.90
8666;DHT22;4370;48.916;8.380;2023-11-18T21:16:18;9.50;99.90
8666;DHT22;4370;48.916;8.380;2023-11-18T21:18:44;9.20;99.90
8666;DHT22;4370;48.916;8.380;2023-11-18T21:21:17;9.50;99.90
8666;DHT22;4370;48.916;8.380;2023-11-18T21:24:13;9.70;99.90
8666;DHT22;4370;48.916;8.380;2023-11-18T21:26:39;9.30;99.90
8666;DHT22;4370;48.916;8.380;2023-11-18T21:29:09;9.20;99.90
8666;DHT22;4370;48.916;8.380;2023-11-18T21:31:37;9.30;99.90
8666;DHT22;4370;48.916;8.380;2023-11-18T21:34:05;9.40;99.90
8666;DHT22;4370;48.916;8.380;2023-11-18T21:36:31;9.50;99.90
8666;DHT22;4370;48.916;8.380;2023-11-18T21:39:27;9.10;99.90
8666;DHT22;4370;48.916;8.380;2023-11-18T21:48:06;9.20;99.90
8666;DHT22;4370;48.916;8.380;2023-11-18T21:50:34;9.30;99.90
8666;DHT22;4370;48.916;8.380;2023-11-18T21:53:00;9.20;99.90
8666;DHT22;4370;48.916;8.380;2023-11-18T21:55:47;9.30;99.90
8666;DHT22;4370;48.916;8.380;2023-11-18T22:05:41;9.00;99.90
8666;DHT22;4370;48.916;8.380;2023-11-18T22:18:36;9.00;99.90
8666;DHT22;4370;48.916;8.380;2023-11-18T22:21:26;9.00;99.90
8666;DHT22;4370;48.916;8.380;2023-11-18T22:24:04;9.00;99.90
8666;DHT22;4370;48.916;8.380;2023-11-18T22:26:42;8.90;99.90
8666;DHT22;4370;48.916;8.380;2023-11-18T22:29:11;8.60;99.90
8666;DHT22;4370;48.916;8.380;2023-11-18T22:31:40;8.70;99.90
8666;DHT22;4370;48.916;8.380;2023-11-18T22:34:06;8.50;99.90
8666;DHT22;4370;48.916;8.380;2023-11-18T22:36:37;9.10;99.90
8666;DHT22;4370;48.916;8.380;2023-11-18T22:39:15;8.80;99.90
8666;DHT22;4370;48.916;8.380;2023-11-18T22:41:44;9.10;99.90
8666;DHT22;4370;48.916;8.380;2023-11-18T22:44:09;8.80;99.90
8666;DHT22;4370;48.916;8.380;2023-11-18T22:46:40;9.00;99.90
8666;DHT22;4370;48.916;8.380;2023-11-18T22:49:10;9.10;99.90
8666;DHT22;4370;48.916;8.380;2023-11-18T22:54:04;9.40;99.90
8666;DHT22;4370;48.916;8.380;2023-11-18T22:56:33;9.40;99.90
8666;DHT22;4370;48.916;8.380;2023-11-18T22:59:22;9.30;99.90
8666;DHT22;4370;48.916;8.380;2023-11-18T23:01:48;9.20;99.90
8666;DHT22;4370;48.916;8.380;2023-11-18T23:04:17;9.10;99.90
8666;DHT22;4370;48.916;8.380;2023-11-18T23:09:49;9.60;99.90
8666;DHT22;4370;48.916;8.380;2023-11-18T23:12:15;9.30;99.90
8666;DHT22;4370;48.916;8.380;2023-11-18T23:15:18;9.30;99.90
8666;DHT22;4370;48.916;8.380;2023-11-18T23:17:55;9.10;99.90
8666;DHT22;4370;48.916;8.380;2023-11-18T23:22:59;8.90;99.90
8666;DHT22;4370;48.916;8.380;2023-11-18T23:25:30;9.20;99.90
8666;DHT22;4370;48.916;8.380;2023-11-18T23:27:57;9.30;99.90
8666;DHT22;4370;48.916;8.380;2023-11-18T23:30:26;9.30;99.90
8666;DHT22;4370;48.916;8.380;2023-11-18T23:32:53;10.10;99.90
8666;DHT22;4370;48.916;8.380;2023-11-18T23:35:39;10.10;99.90
8666;DHT22;4370;48.916;8.380;2023-11-18T23:38:05;9.20;99.90
8666;DHT22;4370;48.916;8.380;2023-11-18T23:40:34;9.60;99.90
8666;DHT22;4370;48.916;8.380;2023-11-18T23:43:00;9.40;99.90
8666;DHT22;4370;48.916;8.380;2023-11-18T23:45:27;9.50;99.90
8666;DHT22;4370;48.916;8.380;2023-11-18T23:47:53;9.20;99.90
8666;DHT22;4370;48.916;8.380;2023-11-18T23:50:29;9.50;99.90
8666;DHT22;4370;48.916;8.380;2023-11-18T23:52:57;9.50;99.90
8666;DHT22;4370;48.916;8.380;2023-11-18T23:55:24;9.50;99.90
8666;DHT22;4370;48.916;8.380;2023-11-18T23:57:50;9.70;99.90
